aviador You're here:

CYDN Decoded Metar

DAUPHIN in MB, CANADA
Report Time2017-09-20 19:00:00
UTC Time2017-09-20 20:11:04
Flight Rules Old
Wind220° at 17 Gusting to 25 kt
W.Decomp.*RWY 20: 16.6 kt HW 3.8 kt RCW
RWY 26: 11.6 kt HW 12.4 kt LCW
RWY 14: 5.0 kt HW 16.3 kt RCW
W.Rank220° ranks 8
Current wind is above 220° avg. (8.8)
Visibility9999 m
Phenomena:N/A
Clouds:N/A
Expected CloudBase > 5,200 ft AGL from Temp-Dew spread
CeilingNone
Temp18°C (ISA +5)
Dew Point05°C (43% RH)
AAT10.8°C
QNH997 hPa
Density Alt2,251 ft
Elevation1,001 ft
Report Wrong Elevation
Raw Report
CYDN 201900Z AUTO 22017G25KT 9SM CLR 18/05 A2945 RMK SLP978
DENSITY ALT 2100FT=

Extra information for CYDN:More info

Metar Taf Metar & Taf Last 4 Metars F.Rules Stats Wind Profile Meteogram Temp Stats Airport Information Weather charts Add Link Nearby VenuesMetar ALERT Operation Metar Decoded Social comments